Aérodrome :
LOGIN :

S'inscrire | Disclaimer

   EN    FR    IT 

 










Légende :    VFR   VFR Marginal   IFR   IFR Intensif   IFR Très Intensif
Visi : 
Plafond : 
>= 8 km
>= 3000ft
5 à 8 km
1000 à 3000 ft
1500m à 5 km
500 à 1000 ft
800 à 1500m
200 à 500 ft
< 800m
< 200 ft
Symboles :   Orages  Brouillard  Fortes neiges  Fortes précipitations  Vent > 20 kt
SIGMETs :   Divers  Orages  Givrage  Turbulence  Onde Orograph.  Cendres Volcan.






- Altitude de l'aérodrome : 405 ft
- Code IATA : ODH


EGVO - RAF Odiham

DERNIER METAR :
  • 280650Z 19004KT 9999 OVC013 07/07 Q1018 RMK GRN

METARs EXPIRÉS :
  • 280620Z AUTO 18004KT 9999 OVC010/// 07/07 Q1018
  • 280550Z AUTO 21005KT 9999 OVC010/// 07/07 Q1018
  • 280520Z AUTO 22003KT 9999 OVC010/// 07/07 Q1019
  • 280450Z AUTO 21002KT 9999 // OVC009/// 07/07 Q1019
  • 280420Z AUTO 21003KT 9999 // OVC007/// 07/07 Q1019
  • 280350Z AUTO 21004KT 9999 FG FEW001/// OVC010/// 06/06 Q1019
  • 280320Z AUTO 18003KT 0350 FG BKN001/// SCT016/// 06/06 Q1019
  • 280250Z AUTO 20004KT 0300 FG OVC001/// 06/06 Q1019
  • 280220Z AUTO 22004KT 4900 BR OVC001/// 07/06 Q1019
  • 280150Z AUTO 22004KT 6000 BR BKN002/// BKN020/// BKN042/// 07/07 Q1019

TAF TAF EGVO
Valide du 28 à 00h jusqu'au 28 à 12h UTC


272226Z 2800/2812 25006KT 9999 BKN010
TEMPO 2800/2809 BKN005
PROB40
TEMPO 2800/2802 5000 -DZ
PROB30
TEMPO 2800/2802 3000 BR BKN004
PROB40
TEMPO 2802/2809 3000 BR BKN003
PROB30
TEMPO 2802/2809 0500 FG BKN001
BECMG 2803/2806 FEW008
PROB30
TEMPO 2809/2811 5000 BR SCT004
PROB30
TEMPO 2811/2812 SCT008



MET'MAP, la Météo Aéronautique d'un coup d'oeil ! - Copyright ORBIFLY Décembre 2007 - Disclaimer

ORBIFLY MET'MAP TEAM :

Programmation & Développement : Alexandra Zaïnal
Sur une idée originale de : Baudouin d'Aumeries
Soutien technique & logistique : Manuel Goepfert
Assistance : Marc-Olivier Méhu




SOURCES & CREDITS :

   NOAA